sensor_id;sensor_type;location;lat;lon;timestamp;P1;durP1;ratioP1;P2;durP2;ratioP2
66874;SDS011;53784;52.630;4.896;2023-03-01T00:01:36;15.30;;;7.93;;
66874;SDS011;53784;52.630;4.896;2023-03-01T00:04:01;17.10;;;7.65;;
66874;SDS011;53784;52.630;4.896;2023-03-01T00:06:26;16.63;;;8.13;;
66874;SDS011;53784;52.630;4.896;2023-03-01T00:08:52;15.55;;;8.35;;
66874;SDS011;53784;52.630;4.896;2023-03-01T00:11:18;16.58;;;8.52;;
66874;SDS011;53784;52.630;4.896;2023-03-01T00:13:44;14.90;;;7.95;;
66874;SDS011;53784;52.630;4.896;2023-03-01T00:16:12;15.00;;;7.78;;
66874;SDS011;53784;52.630;4.896;2023-03-01T00:18:39;19.92;;;9.30;;
66874;SDS011;53784;52.630;4.896;2023-03-01T00:21:05;17.50;;;8.63;;
66874;SDS011;53784;52.630;4.896;2023-03-01T00:23:30;17.67;;;8.35;;
66874;SDS011;53784;52.630;4.896;2023-03-01T00:25:55;16.42;;;8.13;;
66874;SDS011;53784;52.630;4.896;2023-03-01T00:28:21;17.02;;;8.55;;
66874;SDS011;53784;52.630;4.896;2023-03-01T00:30:46;17.38;;;8.68;;
66874;SDS011;53784;52.630;4.896;2023-03-01T00:33:11;15.60;;;8.25;;
66874;SDS011;53784;52.630;4.896;2023-03-01T00:35:36;20.03;;;8.53;;
66874;SDS011;53784;52.630;4.896;2023-03-01T00:38:02;16.60;;;8.30;;
66874;SDS011;53784;52.630;4.896;2023-03-01T00:40:34;17.98;;;8.48;;
66874;SDS011;53784;52.630;4.896;2023-03-01T00:43:00;17.75;;;8.50;;
66874;SDS011;53784;52.630;4.896;2023-03-01T00:45:25;17.92;;;8.57;;
66874;SDS011;53784;52.630;4.896;2023-03-01T00:47:51;16.20;;;8.00;;
66874;SDS011;53784;52.630;4.896;2023-03-01T00:50:16;18.92;;;8.55;;
66874;SDS011;53784;52.630;4.896;2023-03-01T00:52:41;18.10;;;8.20;;
66874;SDS011;53784;52.630;4.896;2023-03-01T00:55:07;17.40;;;8.20;;
66874;SDS011;53784;52.630;4.896;2023-03-01T00:57:32;17.25;;;8.40;;
66874;SDS011;53784;52.630;4.896;2023-03-01T00:59:58;17.27;;;8.57;;
66874;SDS011;53784;52.630;4.896;2023-03-01T01:02:25;18.20;;;8.77;;
66874;SDS011;53784;52.630;4.896;2023-03-01T01:04:50;17.45;;;8.38;;
66874;SDS011;53784;52.630;4.896;2023-03-01T01:07:16;17.88;;;8.48;;
66874;SDS011;53784;52.630;4.896;2023-03-01T01:09:41;20.05;;;8.68;;
66874;SDS011;53784;52.630;4.896;2023-03-01T01:12:06;17.13;;;8.75;;
66874;SDS011;53784;52.630;4.896;2023-03-01T01:14:32;17.55;;;8.48;;
66874;SDS011;53784;52.630;4.896;2023-03-01T01:16:57;18.17;;;8.43;;
66874;SDS011;53784;52.630;4.896;2023-03-01T01:19:23;19.10;;;8.38;;
66874;SDS011;53784;52.630;4.896;2023-03-01T01:21:48;16.13;;;7.85;;
66874;SDS011;53784;52.630;4.896;2023-03-01T01:24:17;15.70;;;7.80;;
66874;SDS011;53784;52.630;4.896;2023-03-01T01:26:42;16.83;;;7.95;;
66874;SDS011;53784;52.630;4.896;2023-03-01T01:29:08;18.98;;;8.60;;
66874;SDS011;53784;52.630;4.896;2023-03-01T01:31:34;19.17;;;8.30;;
66874;SDS011;53784;52.630;4.896;2023-03-01T01:33:59;16.23;;;7.88;;
66874;SDS011;53784;52.630;4.896;2023-03-01T01:36:25;18.63;;;8.45;;
66874;SDS011;53784;52.630;4.896;2023-03-01T01:38:51;17.38;;;8.20;;
66874;SDS011;53784;52.630;4.896;2023-03-01T01:41:16;17.05;;;8.15;;
66874;SDS011;53784;52.630;4.896;2023-03-01T01:43:46;19.05;;;8.57;;
66874;SDS011;53784;52.630;4.896;2023-03-01T01:46:31;18.98;;;8.70;;
66874;SDS011;53784;52.630;4.896;2023-03-01T01:51:41;20.08;;;8.90;;
66874;SDS011;53784;52.630;4.896;2023-03-01T01:54:08;18.17;;;8.45;;
66874;SDS011;53784;52.630;4.896;2023-03-01T01:56:35;21.90;;;9.30;;
66874;SDS011;53784;52.630;4.896;2023-03-01T01:59:01;18.05;;;8.68;;
66874;SDS011;53784;52.630;4.896;2023-03-01T02:01:27;20.08;;;9.48;;
66874;SDS011;53784;52.630;4.896;2023-03-01T02:03:52;17.98;;;9.20;;
66874;SDS011;53784;52.630;4.896;2023-03-01T02:07:01;20.75;;;9.40;;
66874;SDS011;53784;52.630;4.896;2023-03-01T02:09:10;22.23;;;8.98;;
66874;SDS011;53784;52.630;4.896;2023-03-01T02:11:36;21.65;;;9.57;;
66874;SDS011;53784;52.630;4.896;2023-03-01T02:14:02;18.92;;;9.20;;
66874;SDS011;53784;52.630;4.896;2023-03-01T02:16:28;22.15;;;10.10;;
66874;SDS011;53784;52.630;4.896;2023-03-01T02:18:53;19.40;;;9.55;;
66874;SDS011;53784;52.630;4.896;2023-03-01T02:21:40;18.95;;;9.60;;
66874;SDS011;53784;52.630;4.896;2023-03-01T02:24:30;20.17;;;8.57;;
66874;SDS011;53784;52.630;4.896;2023-03-01T02:26:55;20.13;;;9.40;;
66874;SDS011;53784;52.630;4.896;2023-03-01T02:29:22;21.27;;;9.05;;
66874;SDS011;53784;52.630;4.896;2023-03-01T02:31:48;19.42;;;8.57;;
66874;SDS011;53784;52.630;4.896;2023-03-01T02:34:16;19.15;;;8.95;;
66874;SDS011;53784;52.630;4.896;2023-03-01T02:37:01;19.23;;;9.40;;
66874;SDS011;53784;52.630;4.896;2023-03-01T02:39:29;18.17;;;9.43;;
66874;SDS011;53784;52.630;4.896;2023-03-01T02:41:55;19.48;;;9.05;;
66874;SDS011;53784;52.630;4.896;2023-03-01T02:44:21;19.35;;;8.90;;
66874;SDS011;53784;52.630;4.896;2023-03-01T02:46:48;19.88;;;9.30;;
66874;SDS011;53784;52.630;4.896;2023-03-01T02:49:30;20.05;;;9.18;;
66874;SDS011;53784;52.630;4.896;2023-03-01T02:54:26;19.70;;;9.10;;
66874;SDS011;53784;52.630;4.896;2023-03-01T02:56:53;19.83;;;8.68;;
66874;SDS011;53784;52.630;4.896;2023-03-01T02:59:19;20.67;;;9.00;;
66874;SDS011;53784;52.630;4.896;2023-03-01T03:01:45;20.92;;;9.77;;
66874;SDS011;53784;52.630;4.896;2023-03-01T03:04:13;29.80;;;10.98;;
66874;SDS011;53784;52.630;4.896;2023-03-01T03:06:41;23.70;;;11.15;;
66874;SDS011;53784;52.630;4.896;2023-03-01T03:09:07;23.48;;;10.32;;
66874;SDS011;53784;52.630;4.896;2023-03-01T03:11:32;19.67;;;9.35;;
66874;SDS011;53784;52.630;4.896;2023-03-01T03:13:58;21.52;;;9.90;;
66874;SDS011;53784;52.630;4.896;2023-03-01T03:16:23;20.48;;;9.80;;
66874;SDS011;53784;52.630;4.896;2023-03-01T03:18:49;22.45;;;11.45;;
66874;SDS011;53784;52.630;4.896;2023-03-01T03:21:14;22.80;;;10.68;;
66874;SDS011;53784;52.630;4.896;2023-03-01T03:23:41;23.60;;;10.75;;
66874;SDS011;53784;52.630;4.896;2023-03-01T03:26:06;22.30;;;10.48;;
66874;SDS011;53784;52.630;4.896;2023-03-01T03:28:32;25.43;;;10.47;;
66874;SDS011;53784;52.630;4.896;2023-03-01T03:30:57;22.95;;;10.48;;
66874;SDS011;53784;52.630;4.896;2023-03-01T03:33:26;25.25;;;11.13;;
66874;SDS011;53784;52.630;4.896;2023-03-01T03:35:51;25.15;;;11.00;;
66874;SDS011;53784;52.630;4.896;2023-03-01T03:38:18;22.40;;;10.82;;
66874;SDS011;53784;52.630;4.896;2023-03-01T03:40:45;26.33;;;11.30;;
66874;SDS011;53784;52.630;4.896;2023-03-01T03:43:13;23.42;;;11.20;;
66874;SDS011;53784;52.630;4.896;2023-03-01T03:45:39;25.17;;;11.43;;
66874;SDS011;53784;52.630;4.896;2023-03-01T03:48:05;25.42;;;11.70;;
66874;SDS011;53784;52.630;4.896;2023-03-01T03:50:30;22.50;;;10.60;;
66874;SDS011;53784;52.630;4.896;2023-03-01T03:52:56;24.23;;;10.93;;
66874;SDS011;53784;52.630;4.896;2023-03-01T03:55:21;25.42;;;11.35;;
66874;SDS011;53784;52.630;4.896;2023-03-01T03:57:47;24.80;;;11.05;;
66874;SDS011;53784;52.630;4.896;2023-03-01T04:00:16;24.23;;;11.00;;
66874;SDS011;53784;52.630;4.896;2023-03-01T04:02:43;23.50;;;10.50;;
66874;SDS011;53784;52.630;4.896;2023-03-01T04:05:10;22.25;;;9.90;;
66874;SDS011;53784;52.630;4.896;2023-03-01T04:07:35;26.00;;;9.82;;
66874;SDS011;53784;52.630;4.896;2023-03-01T04:10:02;22.55;;;10.25;;
66874;SDS011;53784;52.630;4.896;2023-03-01T04:12:28;22.02;;;9.70;;
66874;SDS011;53784;52.630;4.896;2023-03-01T04:14:53;23.35;;;10.23;;
66874;SDS011;53784;52.630;4.896;2023-03-01T04:17:23;19.73;;;8.85;;
66874;SDS011;53784;52.630;4.896;2023-03-01T04:19:48;22.65;;;9.15;;
66874;SDS011;53784;52.630;4.896;2023-03-01T04:22:14;18.63;;;8.75;;
66874;SDS011;53784;52.630;4.896;2023-03-01T04:24:42;21.17;;;9.15;;
66874;SDS011;53784;52.630;4.896;2023-03-01T04:27:09;19.40;;;8.95;;
66874;SDS011;53784;52.630;4.896;2023-03-01T04:29:35;23.58;;;9.18;;
66874;SDS011;53784;52.630;4.896;2023-03-01T04:32:00;19.50;;;9.02;;
66874;SDS011;53784;52.630;4.896;2023-03-01T04:34:25;20.30;;;9.35;;
66874;SDS011;53784;52.630;4.896;2023-03-01T04:36:51;19.83;;;9.00;;
66874;SDS011;53784;52.630;4.896;2023-03-01T04:39:18;16.30;;;8.02;;
66874;SDS011;53784;52.630;4.896;2023-03-01T04:41:43;19.10;;;8.30;;
66874;SDS011;53784;52.630;4.896;2023-03-01T04:44:09;17.13;;;8.35;;
66874;SDS011;53784;52.630;4.896;2023-03-01T04:46:34;40.50;;;9.52;;
66874;SDS011;53784;52.630;4.896;2023-03-01T04:49:00;24.13;;;9.60;;
66874;SDS011;53784;52.630;4.896;2023-03-01T04:51:25;46.42;;;9.73;;
66874;SDS011;53784;52.630;4.896;2023-03-01T04:53:50;38.08;;;8.30;;
66874;SDS011;53784;52.630;4.896;2023-03-01T04:56:16;58.83;;;7.68;;
66874;SDS011;53784;52.630;4.896;2023-03-01T04:58:43;47.47;;;8.40;;
66874;SDS011;53784;52.630;4.896;2023-03-01T05:01:16;54.10;;;8.77;;
66874;SDS011;53784;52.630;4.896;2023-03-01T05:03:46;42.92;;;8.93;;
66874;SDS011;53784;52.630;4.896;2023-03-01T05:06:11;67.07;;;8.82;;
66874;SDS011;53784;52.630;4.896;2023-03-01T05:08:40;40.80;;;7.68;;
66874;SDS011;53784;52.630;4.896;2023-03-01T05:11:06;28.48;;;7.13;;
66874;SDS011;53784;52.630;4.896;2023-03-01T05:13:34;20.00;;;7.47;;
66874;SDS011;53784;52.630;4.896;2023-03-01T05:16:00;19.60;;;7.47;;
66874;SDS011;53784;52.630;4.896;2023-03-01T05:18:26;67.32;;;7.50;;
66874;SDS011;53784;52.630;4.896;2023-03-01T05:20:56;17.63;;;6.75;;
66874;SDS011;53784;52.630;4.896;2023-03-01T05:23:25;12.52;;;6.47;;
66874;SDS011;53784;52.630;4.896;2023-03-01T05:25:51;13.30;;;6.47;;
66874;SDS011;53784;52.630;4.896;2023-03-01T05:28:17;17.15;;;6.35;;
66874;SDS011;53784;52.630;4.896;2023-03-01T05:30:43;16.50;;;7.60;;
66874;SDS011;53784;52.630;4.896;2023-03-01T05:33:08;24.10;;;8.13;;
66874;SDS011;53784;52.630;4.896;2023-03-01T05:35:40;24.33;;;7.43;;
66874;SDS011;53784;52.630;4.896;2023-03-01T05:38:06;22.33;;;7.93;;
66874;SDS011;53784;52.630;4.896;2023-03-01T05:40:32;21.77;;;7.82;;
66874;SDS011;53784;52.630;4.896;2023-03-01T05:43:03;21.27;;;7.97;;
66874;SDS011;53784;52.630;4.896;2023-03-01T05:45:30;19.77;;;7.80;;
66874;SDS011;53784;52.630;4.896;2023-03-01T05:47:57;19.55;;;7.80;;
66874;SDS011;53784;52.630;4.896;2023-03-01T05:50:23;16.25;;;7.97;;
66874;SDS011;53784;52.630;4.896;2023-03-01T05:52:51;16.20;;;7.30;;
66874;SDS011;53784;52.630;4.896;2023-03-01T05:55:17;15.70;;;6.90;;
66874;SDS011;53784;52.630;4.896;2023-03-01T05:57:43;26.17;;;6.40;;
66874;SDS011;53784;52.630;4.896;2023-03-01T06:00:09;31.20;;;6.55;;
66874;SDS011;53784;52.630;4.896;2023-03-01T06:02:34;28.50;;;6.05;;
66874;SDS011;53784;52.630;4.896;2023-03-01T06:05:01;53.60;;;6.55;;
66874;SDS011;53784;52.630;4.896;2023-03-01T06:07:27;54.50;;;6.50;;
66874;SDS011;53784;52.630;4.896;2023-03-01T06:09:52;64.80;;;6.88;;
66874;SDS011;53784;52.630;4.896;2023-03-01T06:12:17;54.93;;;7.20;;
66874;SDS011;53784;52.630;4.896;2023-03-01T06:14:43;58.67;;;7.53;;
66874;SDS011;53784;52.630;4.896;2023-03-01T06:17:08;42.53;;;8.18;;
66874;SDS011;53784;52.630;4.896;2023-03-01T06:19:33;49.17;;;7.15;;
66874;SDS011;53784;52.630;4.896;2023-03-01T06:21:58;75.47;;;7.60;;
66874;SDS011;53784;52.630;4.896;2023-03-01T06:24:23;48.88;;;7.38;;
66874;SDS011;53784;52.630;4.896;2023-03-01T06:29:52;71.90;;;8.27;;
66874;SDS011;53784;52.630;4.896;2023-03-01T06:32:17;65.25;;;8.52;;
66874;SDS011;53784;52.630;4.896;2023-03-01T06:34:42;53.35;;;8.60;;
66874;SDS011;53784;52.630;4.896;2023-03-01T06:37:07;43.97;;;9.57;;
66874;SDS011;53784;52.630;4.896;2023-03-01T06:39:33;28.65;;;9.60;;
66874;SDS011;53784;52.630;4.896;2023-03-01T06:41:58;51.15;;;9.88;;
66874;SDS011;53784;52.630;4.896;2023-03-01T06:44:23;31.23;;;9.45;;
66874;SDS011;53784;52.630;4.896;2023-03-01T06:46:48;37.25;;;10.43;;
66874;SDS011;53784;52.630;4.896;2023-03-01T06:49:14;71.93;;;15.83;;
66874;SDS011;53784;52.630;4.896;2023-03-01T06:51:44;46.88;;;13.45;;
66874;SDS011;53784;52.630;4.896;2023-03-01T06:54:09;48.28;;;14.95;;
66874;SDS011;53784;52.630;4.896;2023-03-01T06:56:35;25.67;;;10.07;;
66874;SDS011;53784;52.630;4.896;2023-03-01T06:59:00;28.20;;;12.48;;
66874;SDS011;53784;52.630;4.896;2023-03-01T07:01:26;29.85;;;13.50;;
66874;SDS011;53784;52.630;4.896;2023-03-01T07:03:51;29.10;;;13.35;;
66874;SDS011;53784;52.630;4.896;2023-03-01T07:06:16;31.60;;;13.35;;
66874;SDS011;53784;52.630;4.896;2023-03-01T07:08:42;24.50;;;12.20;;
66874;SDS011;53784;52.630;4.896;2023-03-01T07:11:07;39.78;;;19.35;;
66874;SDS011;53784;52.630;4.896;2023-03-01T07:13:34;122.40;;;45.93;;
66874;SDS011;53784;52.630;4.896;2023-03-01T07:15:59;36.22;;;15.70;;
66874;SDS011;53784;52.630;4.896;2023-03-01T07:18:24;29.58;;;12.60;;
66874;SDS011;53784;52.630;4.896;2023-03-01T07:20:50;22.70;;;12.18;;
66874;SDS011;53784;52.630;4.896;2023-03-01T07:23:15;21.90;;;11.70;;
66874;SDS011;53784;52.630;4.896;2023-03-01T07:25:40;19.55;;;10.77;;
66874;SDS011;53784;52.630;4.896;2023-03-01T07:28:05;18.58;;;10.45;;
66874;SDS011;53784;52.630;4.896;2023-03-01T07:30:31;19.50;;;10.18;;
66874;SDS011;53784;52.630;4.896;2023-03-01T07:32:57;17.08;;;9.15;;
66874;SDS011;53784;52.630;4.896;2023-03-01T07:35:26;18.90;;;9.68;;
66874;SDS011;53784;52.630;4.896;2023-03-01T07:37:52;27.88;;;12.98;;
66874;SDS011;53784;52.630;4.896;2023-03-01T07:40:18;23.02;;;11.20;;
66874;SDS011;53784;52.630;4.896;2023-03-01T07:42:43;22.92;;;11.63;;
66874;SDS011;53784;52.630;4.896;2023-03-01T07:45:09;18.48;;;10.00;;
66874;SDS011;53784;52.630;4.896;2023-03-01T07:47:35;25.20;;;12.98;;
66874;SDS011;53784;52.630;4.896;2023-03-01T07:50:00;32.63;;;14.40;;
66874;SDS011;53784;52.630;4.896;2023-03-01T07:52:26;24.05;;;11.65;;
66874;SDS011;53784;52.630;4.896;2023-03-01T07:54:51;20.63;;;11.23;;
66874;SDS011;53784;52.630;4.896;2023-03-01T07:57:16;17.40;;;9.57;;
66874;SDS011;53784;52.630;4.896;2023-03-01T07:59:42;17.20;;;9.45;;
66874;SDS011;53784;52.630;4.896;2023-03-01T08:02:08;17.60;;;10.20;;
66874;SDS011;53784;52.630;4.896;2023-03-01T08:04:33;18.27;;;10.00;;
66874;SDS011;53784;52.630;4.896;2023-03-01T08:06:58;23.03;;;13.00;;
66874;SDS011;53784;52.630;4.896;2023-03-01T08:09:23;22.63;;;13.70;;
66874;SDS011;53784;52.630;4.896;2023-03-01T08:11:49;19.47;;;11.07;;
66874;SDS011;53784;52.630;4.896;2023-03-01T08:14:14;17.60;;;11.35;;
66874;SDS011;53784;52.630;4.896;2023-03-01T08:16:39;16.10;;;10.37;;
66874;SDS011;53784;52.630;4.896;2023-03-01T08:19:13;16.00;;;9.80;;
66874;SDS011;53784;52.630;4.896;2023-03-01T08:21:39;15.20;;;10.23;;
66874;SDS011;53784;52.630;4.896;2023-03-01T08:24:05;16.60;;;10.45;;
66874;SDS011;53784;52.630;4.896;2023-03-01T08:26:31;15.95;;;10.15;;
66874;SDS011;53784;52.630;4.896;2023-03-01T08:28:56;19.00;;;10.73;;
66874;SDS011;53784;52.630;4.896;2023-03-01T08:31:32;17.50;;;10.68;;
66874;SDS011;53784;52.630;4.896;2023-03-01T08:33:59;15.23;;;10.10;;
66874;SDS011;53784;52.630;4.896;2023-03-01T08:36:26;15.85;;;10.40;;
66874;SDS011;53784;52.630;4.896;2023-03-01T08:38:51;14.98;;;10.38;;
66874;SDS011;53784;52.630;4.896;2023-03-01T08:41:17;15.48;;;10.10;;
66874;SDS011;53784;52.630;4.896;2023-03-01T08:43:42;13.40;;;9.88;;
66874;SDS011;53784;52.630;4.896;2023-03-01T08:46:07;13.80;;;9.98;;
66874;SDS011;53784;52.630;4.896;2023-03-01T08:48:33;12.97;;;9.87;;
66874;SDS011;53784;52.630;4.896;2023-03-01T08:51:06;15.17;;;10.77;;
66874;SDS011;53784;52.630;4.896;2023-03-01T08:53:32;14.43;;;11.10;;
66874;SDS011;53784;52.630;4.896;2023-03-01T08:55:59;15.63;;;10.33;;
66874;SDS011;53784;52.630;4.896;2023-03-01T08:58:24;13.55;;;10.85;;
66874;SDS011;53784;52.630;4.896;2023-03-01T09:00:49;13.77;;;10.90;;
66874;SDS011;53784;52.630;4.896;2023-03-01T09:03:15;15.33;;;13.07;;
66874;SDS011;53784;52.630;4.896;2023-03-01T09:05:40;16.73;;;14.47;;
66874;SDS011;53784;52.630;4.896;2023-03-01T09:08:05;13.73;;;11.10;;
66874;SDS011;53784;52.630;4.896;2023-03-01T09:10:30;14.13;;;11.00;;
66874;SDS011;53784;52.630;4.896;2023-03-01T09:12:56;13.03;;;11.40;;
66874;SDS011;53784;52.630;4.896;2023-03-01T09:15:21;16.07;;;12.40;;
66874;SDS011;53784;52.630;4.896;2023-03-01T09:17:46;13.27;;;11.83;;
66874;SDS011;53784;52.630;4.896;2023-03-01T09:20:11;14.95;;;11.80;;
66874;SDS011;53784;52.630;4.896;2023-03-01T09:22:37;13.80;;;11.80;;
66874;SDS011;53784;52.630;4.896;2023-03-01T09:25:02;14.23;;;11.77;;
66874;SDS011;53784;52.630;4.896;2023-03-01T09:27:27;14.40;;;11.90;;
66874;SDS011;53784;52.630;4.896;2023-03-01T09:29:52;12.80;;;11.40;;
66874;SDS011;53784;52.630;4.896;2023-03-01T09:32:17;14.57;;;11.73;;
66874;SDS011;53784;52.630;4.896;2023-03-01T09:34:42;13.50;;;11.43;;
66874;SDS011;53784;52.630;4.896;2023-03-01T09:37:28;14.70;;;11.95;;
66874;SDS011;53784;52.630;4.896;2023-03-01T09:39:53;14.02;;;11.80;;
66874;SDS011;53784;52.630;4.896;2023-03-01T09:42:19;13.53;;;11.80;;
66874;SDS011;53784;52.630;4.896;2023-03-01T09:47:20;14.73;;;12.17;;
66874;SDS011;53784;52.630;4.896;2023-03-01T09:50:33;14.40;;;11.93;;
66874;SDS011;53784;52.630;4.896;2023-03-01T09:52:46;14.18;;;12.05;;
66874;SDS011;53784;52.630;4.896;2023-03-01T09:55:14;13.50;;;11.93;;
66874;SDS011;53784;52.630;4.896;2023-03-01T10:02:43;13.52;;;11.60;;
66874;SDS011;53784;52.630;4.896;2023-03-01T10:05:15;12.50;;;11.20;;
66874;SDS011;53784;52.630;4.896;2023-03-01T10:07:46;12.63;;;11.32;;
66874;SDS011;53784;52.630;4.896;2023-03-01T10:10:28;13.02;;;11.63;;
66874;SDS011;53784;52.630;4.896;2023-03-01T10:12:53;15.13;;;12.30;;
66874;SDS011;53784;52.630;4.896;2023-03-01T10:15:22;41.97;;;24.77;;
66874;SDS011;53784;52.630;4.896;2023-03-01T10:17:57;24.97;;;16.80;;
66874;SDS011;53784;52.630;4.896;2023-03-01T10:20:26;12.07;;;10.77;;
66874;SDS011;53784;52.630;4.896;2023-03-01T10:22:52;13.18;;;11.23;;
66874;SDS011;53784;52.630;4.896;2023-03-01T10:25:26;12.25;;;10.93;;
66874;SDS011;53784;52.630;4.896;2023-03-01T10:27:54;13.15;;;11.02;;
66874;SDS011;53784;52.630;4.896;2023-03-01T10:32:51;17.65;;;15.23;;
66874;SDS011;53784;52.630;4.896;2023-03-01T10:35:22;11.15;;;9.05;;
66874;SDS011;53784;52.630;4.896;2023-03-01T10:37:59;9.52;;;8.40;;
66874;SDS011;53784;52.630;4.896;2023-03-01T10:40:28;14.80;;;10.67;;
66874;SDS011;53784;52.630;4.896;2023-03-01T10:42:53;10.87;;;9.03;;
66874;SDS011;53784;52.630;4.896;2023-03-01T10:48:41;8.70;;;7.80;;
66874;SDS011;53784;52.630;4.896;2023-03-01T10:56:07;8.70;;;7.25;;
66874;SDS011;53784;52.630;4.896;2023-03-01T10:58:33;10.18;;;8.02;;
66874;SDS011;53784;52.630;4.896;2023-03-01T11:01:06;8.35;;;6.93;;
66874;SDS011;53784;52.630;4.896;2023-03-01T11:03:38;11.05;;;8.32;;
66874;SDS011;53784;52.630;4.896;2023-03-01T11:08:41;8.77;;;7.63;;
66874;SDS011;53784;52.630;4.896;2023-03-01T11:14:07;9.43;;;8.15;;
66874;SDS011;53784;52.630;4.896;2023-03-01T11:16:34;8.38;;;7.47;;
66874;SDS011;53784;52.630;4.896;2023-03-01T11:19:21;9.27;;;8.00;;
66874;SDS011;53784;52.630;4.896;2023-03-01T11:21:55;8.57;;;7.68;;
66874;SDS011;53784;52.630;4.896;2023-03-01T11:24:24;9.50;;;7.80;;
66874;SDS011;53784;52.630;4.896;2023-03-01T11:26:52;9.63;;;7.70;;
66874;SDS011;53784;52.630;4.896;2023-03-01T11:29:38;8.30;;;7.45;;
66874;SDS011;53784;52.630;4.896;2023-03-01T11:32:07;9.05;;;7.80;;
66874;SDS011;53784;52.630;4.896;2023-03-01T11:37:08;8.73;;;7.78;;
66874;SDS011;53784;52.630;4.896;2023-03-01T11:39:37;10.77;;;8.18;;
66874;SDS011;53784;52.630;4.896;2023-03-01T11:44:29;9.83;;;8.10;;
66874;SDS011;53784;52.630;4.896;2023-03-01T11:55:17;12.03;;;9.17;;
66874;SDS011;53784;52.630;4.896;2023-03-01T12:00:06;10.85;;;9.65;;
66874;SDS011;53784;52.630;4.896;2023-03-01T12:02:56;11.35;;;9.52;;
66874;SDS011;53784;52.630;4.896;2023-03-01T12:18:32;10.10;;;8.20;;
66874;SDS011;53784;52.630;4.896;2023-03-01T12:21:18;9.40;;;7.95;;
66874;SDS011;53784;52.630;4.896;2023-03-01T12:26:20;9.95;;;7.88;;
66874;SDS011;53784;52.630;4.896;2023-03-01T12:28:51;9.45;;;8.30;;
66874;SDS011;53784;52.630;4.896;2023-03-01T12:39:32;9.27;;;7.68;;
66874;SDS011;53784;52.630;4.896;2023-03-01T12:47:35;10.05;;;8.10;;
66874;SDS011;53784;52.630;4.896;2023-03-01T12:49:53;11.85;;;8.70;;
66874;SDS011;53784;52.630;4.896;2023-03-01T12:52:23;9.88;;;8.00;;
66874;SDS011;53784;52.630;4.896;2023-03-01T12:54:51;10.15;;;8.10;;
66874;SDS011;53784;52.630;4.896;2023-03-01T12:57:22;9.85;;;8.25;;
66874;SDS011;53784;52.630;4.896;2023-03-01T13:02:35;10.75;;;8.65;;
66874;SDS011;53784;52.630;4.896;2023-03-01T13:07:55;10.98;;;8.63;;
66874;SDS011;53784;52.630;4.896;2023-03-01T13:12:56;12.27;;;9.30;;
66874;SDS011;53784;52.630;4.896;2023-03-01T13:15:46;12.05;;;9.45;;
66874;SDS011;53784;52.630;4.896;2023-03-01T13:23:11;12.77;;;9.73;;
66874;SDS011;53784;52.630;4.896;2023-03-01T13:30:56;12.82;;;9.70;;
66874;SDS011;53784;52.630;4.896;2023-03-01T13:35:56;14.30;;;10.40;;
66874;SDS011;53784;52.630;4.896;2023-03-01T13:41:06;15.82;;;10.63;;
66874;SDS011;53784;52.630;4.896;2023-03-01T13:43:33;14.52;;;10.40;;
66874;SDS011;53784;52.630;4.896;2023-03-01T13:45:59;16.08;;;10.25;;
66874;SDS011;53784;52.630;4.896;2023-03-01T13:48:25;16.58;;;10.77;;
66874;SDS011;53784;52.630;4.896;2023-03-01T13:50:57;16.30;;;10.75;;
66874;SDS011;53784;52.630;4.896;2023-03-01T13:53:24;16.25;;;10.13;;
66874;SDS011;53784;52.630;4.896;2023-03-01T13:56:36;15.15;;;9.77;;
66874;SDS011;53784;52.630;4.896;2023-03-01T13:58:49;15.70;;;10.05;;
66874;SDS011;53784;52.630;4.896;2023-03-01T14:01:23;16.50;;;10.25;;
66874;SDS011;53784;52.630;4.896;2023-03-01T14:03:48;18.65;;;10.45;;
66874;SDS011;53784;52.630;4.896;2023-03-01T14:06:15;18.15;;;11.18;;
66874;SDS011;53784;52.630;4.896;2023-03-01T14:08:42;24.17;;;12.85;;
66874;SDS011;53784;52.630;4.896;2023-03-01T14:19:15;19.98;;;11.60;;
66874;SDS011;53784;52.630;4.896;2023-03-01T14:21:17;22.38;;;12.10;;
66874;SDS011;53784;52.630;4.896;2023-03-01T14:23:42;17.60;;;10.30;;
66874;SDS011;53784;52.630;4.896;2023-03-01T14:26:07;17.33;;;10.30;;
66874;SDS011;53784;52.630;4.896;2023-03-01T14:28:33;18.02;;;10.55;;
66874;SDS011;53784;52.630;4.896;2023-03-01T14:31:02;19.13;;;10.30;;
66874;SDS011;53784;52.630;4.896;2023-03-01T14:33:32;18.08;;;10.13;;
66874;SDS011;53784;52.630;4.896;2023-03-01T14:36:08;17.85;;;10.23;;
66874;SDS011;53784;52.630;4.896;2023-03-01T14:38:34;17.83;;;9.48;;
66874;SDS011;53784;52.630;4.896;2023-03-01T14:41:02;17.00;;;9.45;;
66874;SDS011;53784;52.630;4.896;2023-03-01T14:43:28;17.13;;;9.40;;
66874;SDS011;53784;52.630;4.896;2023-03-01T14:45:54;17.70;;;10.48;;
66874;SDS011;53784;52.630;4.896;2023-03-01T14:48:19;17.88;;;9.77;;
66874;SDS011;53784;52.630;4.896;2023-03-01T14:50:45;19.70;;;11.55;;
66874;SDS011;53784;52.630;4.896;2023-03-01T14:53:16;18.35;;;10.32;;
66874;SDS011;53784;52.630;4.896;2023-03-01T14:55:46;21.83;;;12.23;;
66874;SDS011;53784;52.630;4.896;2023-03-01T14:58:12;19.10;;;10.68;;
66874;SDS011;53784;52.630;4.896;2023-03-01T15:00:38;19.70;;;11.02;;
66874;SDS011;53784;52.630;4.896;2023-03-01T15:03:14;18.40;;;9.40;;
66874;SDS011;53784;52.630;4.896;2023-03-01T15:05:42;19.30;;;10.02;;
66874;SDS011;53784;52.630;4.896;2023-03-01T15:08:11;15.60;;;9.52;;
66874;SDS011;53784;52.630;4.896;2023-03-01T15:10:55;18.83;;;9.98;;
66874;SDS011;53784;52.630;4.896;2023-03-01T15:13:21;16.23;;;8.88;;
66874;SDS011;53784;52.630;4.896;2023-03-01T15:15:47;18.02;;;9.75;;
66874;SDS011;53784;52.630;4.896;2023-03-01T15:20:41;16.17;;;9.10;;
66874;SDS011;53784;52.630;4.896;2023-03-01T15:23:12;19.48;;;9.50;;
66874;SDS011;53784;52.630;4.896;2023-03-01T15:25:43;19.05;;;10.32;;
66874;SDS011;53784;52.630;4.896;2023-03-01T15:28:19;17.50;;;9.35;;
66874;SDS011;53784;52.630;4.896;2023-03-01T15:30:45;17.27;;;9.35;;
66874;SDS011;53784;52.630;4.896;2023-03-01T15:35:56;16.27;;;9.30;;
66874;SDS011;53784;52.630;4.896;2023-03-01T15:38:35;18.27;;;9.60;;
66874;SDS011;53784;52.630;4.896;2023-03-01T15:41:21;18.65;;;10.07;;
66874;SDS011;53784;52.630;4.896;2023-03-01T15:43:47;17.83;;;9.32;;
66874;SDS011;53784;52.630;4.896;2023-03-01T15:48:47;18.40;;;9.77;;
66874;SDS011;53784;52.630;4.896;2023-03-01T15:51:14;18.60;;;10.05;;
66874;SDS011;53784;52.630;4.896;2023-03-01T15:53:40;19.90;;;10.40;;
66874;SDS011;53784;52.630;4.896;2023-03-01T15:56:07;19.02;;;9.95;;
66874;SDS011;53784;52.630;4.896;2023-03-01T15:58:32;18.35;;;10.10;;
66874;SDS011;53784;52.630;4.896;2023-03-01T16:00:57;18.90;;;10.00;;
66874;SDS011;53784;52.630;4.896;2023-03-01T16:03:23;18.38;;;9.55;;
66874;SDS011;53784;52.630;4.896;2023-03-01T16:05:49;19.87;;;10.27;;
66874;SDS011;53784;52.630;4.896;2023-03-01T16:08:15;19.15;;;10.02;;
66874;SDS011;53784;52.630;4.896;2023-03-01T16:10:41;19.88;;;10.55;;
66874;SDS011;53784;52.630;4.896;2023-03-01T16:13:08;17.98;;;10.13;;
66874;SDS011;53784;52.630;4.896;2023-03-01T16:15:34;17.05;;;9.38;;
66874;SDS011;53784;52.630;4.896;2023-03-01T16:18:00;19.23;;;9.48;;
66874;SDS011;53784;52.630;4.896;2023-03-01T16:20:26;17.20;;;9.48;;
66874;SDS011;53784;52.630;4.896;2023-03-01T16:22:51;18.17;;;9.25;;
66874;SDS011;53784;52.630;4.896;2023-03-01T16:25:17;21.63;;;9.25;;
66874;SDS011;53784;52.630;4.896;2023-03-01T16:27:43;18.05;;;9.43;;
66874;SDS011;53784;52.630;4.896;2023-03-01T16:30:09;24.23;;;9.65;;